Laguna (440) Station Data

Red Flag Warning: No
Fire Weather Zone: 258
SDGE Region: Mountain Empire
Lat/Lon: 32.845/-116.472

Observations

Time Wind Speed/Gust Temp(F) RH Fuel Moist Fuel Temp(F) Dewpt(F) Tmax(F) Tmin(F) Accum Precip 10-min Precip SL Press(mb)
5/24 8:20am 279 2 G 4 69° 19% - - 25° 69.9° 42° - - -
5/24 8:10am 276 2 G 5 69° 19% - - 24° 69.9° 42° - - -
5/24 8:00am 270 3 G 5 68° 18% - - 23° 68.6° 42° - - -
5/24 7:50am 198 1 G 4 66° 30% - - 33° 67.7° 42° - - -
5/24 7:40am 338 2 G 4 63° 34% - - 34° 64.2° 42° - - -
5/24 7:30am 41 2 G 4 60° 33% - - 31° 61.6° 42° - - -
5/24 7:20am 73 1 G 3 59° 39% - - 34° 59.6° 42° - - -
5/24 7:10am 78 2 G 4 57° 39% - - 32° 58° 42° - - -
5/24 7:00am 72 3 G 4 55° 36% - - 28° 56.3° 42° - - -
5/24 6:50am 74 2 G 3 52° 41% - - 29° 52.7° 42° - - -
5/24 6:40am 82 3 G 5 50° 40% - - 27° 51.1° 42° - - -
5/24 6:30am 59 2 G 3 47° 43% - - 26° 49.4° 42° - - -
5/24 6:20am 117 1 G 3 46° 40% - - 23° 49.4° 42° - - -
5/24 6:10am 81 2 G 5 46° 39% - - 23° 49.4° 42° - - -
5/24 6:00am 74 3 G 5 45° 40% - - 21° 49.4° 42° - - -
5/24 5:50am 97 1 G 5 44° 44% - - 23° 49.4° 42° - - -
5/24 5:40am 81 2 G 4 46° 37% - - 21° 49.4° 42° - - -
5/24 5:30am 75 2 G 3 44° 43% - - 23° 49.4° 42° - - -
5/24 5:20am 103 1 G 2 44° 44% - - 24° 49.4° 42° - - -
5/24 5:10am 83 2 G 4 44° 45% - - 24° 49.4° 42° - - -
5/24 5:00am 106 1 G 3 42° 51% - - 25° 49.4° 42° - - -
5/24 4:50am 104 0 G 1 43° 48% - - 25° 49.4° 42.5° - - -
5/24 4:40am 87 2 G 3 45° 42% - - 23° 49.4° 43° - - -
5/24 4:30am 106 1 G 4 44° 45% - - 24° 49.4° 43° - - -
5/24 4:20am 54 1 G 3 45° 41% - - 23° 49.4° 43.9° - - -
5/24 4:10am 92 3 G 4 47° 35% - - 20° 49.4° 44.1° - - -
5/24 4:00am 86 2 G 4 46° 35% - - 20° 49.4° 44.1° - - -
5/24 3:50am 141 2 G 4 45° 37% - - 21° 49.4° 44.1° - - -
5/24 3:40am 88 1 G 4 45° 40% - - 22° 49.4° 44.1° - - -
5/24 3:30am 135 2 G 4 45° 40% - - 23° 49.4° 44.3° - - -
5/24 3:20am 71 2 G 3 46° 38% - - 21° 49.4° 44.4° - - -
5/24 3:10am 94 1 G 4 46° 37% - - 21° 49.4° 44.4° - - -
5/24 3:00am 92 1 G 4 46° 38% - - 22° 49.4° 44.4° - - -
5/24 2:50am 78 0 G 2 45° 41% - - 23° 49.4° 44.4° - - -
5/24 2:40am 84 1 G 4 46° 41% - - 24° 49.4° 44.4° - - -
5/24 2:30am 88 2 G 4 46° 40% - - 23° 49.4° 44.4° - - -
5/24 2:20am 50 1 G 3 45° 47% - - 26° 49.4° 44.6° - - -
5/24 2:10am 94 1 G 3 47° 45% - - 26° 49.4° 45° - - -
5/24 2:00am 75 3 G 5 47° 45% - - 27° 49.4° 45° - - -
5/24 1:50am 88 1 G 3 47° 48% - - 28° 49.4° 45.1° - - -
5/24 1:40am 122 0 G 2 48° 43% - - 27° 49.4° 45.3° - - -
5/24 1:30am 73 2 G 4 47° 43% - - 26° 49.4° 45.3° - - -
5/24 1:20am 344 0 G 1 46° 47% - - 27° 49° 45.3° - - -
5/24 1:10am 113 1 G 3 47° 46% - - 27° 49° 45.8° - - -
5/24 1:00am 101 1 G 3 47° 44% - - 26° 49° 46.3° - - -
5/24 12:50am 141 0 G 1 47° 46% - - 27° 49° 46.3° - - -
5/24 12:40am 156 1 G 3 47° 46% - - 27° 49° 46.4° - - -
5/24 12:30am 130 1 G 3 47° 46% - - 28° 49° 46.5° - - -
5/24 12:20am 79 2 G 3 48° 42% - - 26° 49° 47.6° - - -
5/24 12:10am 96 1 G 2 48° 44% - - 27° 49° 47.7° - - -
5/24 12:00am 86 2 G 3 48° 42% - - 27° 83.8° 46° - - -
5/23 11:50pm 89 0 G 3 47° 48% - - 29° 83.8° 46° - - -
5/23 11:40pm 225 0 G 1 48° 48% - - 29° 83.8° 46° - - -
5/23 11:30pm 74 1 G 2 49° 46% - - 29° 83.8° 46° - - -
5/23 11:20pm 80 0 G 2 49° 45% - - 29° 83.8° 46° - - -
5/23 11:10pm 85 1 G 2 50° 43% - - 28° 83.8° 46° - - -
5/23 11:00pm 98 1 G 3 50° 43% - - 29° 83.8° 46° - - -
5/23 10:50pm 80 2 G 4 50° 44% - - 29° 83.8° 46° - - -
5/23 10:40pm 127 0 G 1 50° 45% - - 30° 83.8° 46° - - -
5/23 10:30pm 96 1 G 3 50° 45% - - 30° 83.8° 46° - - -
5/23 10:20pm 88 1 G 3 51° 45% - - 30° 83.8° 46° - - -
5/23 10:10pm 95 1 G 3 52° 43% - - 30° 83.8° 46° - - -
5/23 10:00pm 91 1 G 2 51° 44% - - 30° 83.8° 46° - - -
5/23 9:50pm 73 2 G 3 51° 46% - - 31° 83.8° 46° - - -
5/23 9:40pm 116 2 G 3 52° 46% - - 32° 83.8° 46° - - -
5/23 9:30pm 120 1 G 3 51° 50% - - 33° 83.8° 46° - - -
5/23 9:20pm 114 1 G 3 53° 48% - - 33° 83.8° 46° - - -
5/23 9:10pm 58 1 G 4 52° 52% - - 35° 83.8° 46° - - -
5/23 9:00pm 129 1 G 3 53° 52% - - 36° 83.8° 46° - - -
5/23 8:50pm 83 1 G 3 55° 51% - - 37° 83.8° 46° - - -
5/23 8:40pm 62 0 G 2 54° 56% - - 39° 83.8° 46° - - -
5/23 8:30pm 107 2 G 3 56° 54% - - 40° 83.8° 46° - - -
5/23 8:20pm 93 1 G 2 56° 57% - - 41° 83.8° 46° - - -
5/23 8:10pm 137 1 G 2 57° 57% - - 43° 83.8° 46° - - -
5/23 8:00pm 271 0 G 2 60° 53% - - 43° 83.8° 46° - - -
5/23 7:50pm 107 1 G 3 62° 50% - - 43° 83.8° 46° - - -
5/23 7:40pm 73 0 G 2 65° 45% - - 43° 83.8° 46° - - -
5/23 7:30pm 189 1 G 2 69° 37% - - 41° 83.8° 46° - - -
5/23 7:20pm 256 1 G 3 73° 29% - - 38° 83.8° 46° - - -
5/23 7:10pm 260 1 G 3 75° 24% - - 36° 83.8° 46° - - -
5/23 7:00pm 282 2 G 5 75° 22% - - 34° 83.8° 46° - - -
5/23 6:50pm 275 2 G 5 76° 19% - - 30° 83.8° 46° - - -
5/23 6:40pm 278 2 G 5 76° 19% - - 31° 83.8° 46° - - -
5/23 6:30pm 288 2 G 6 76° 18% - - 30° 83.8° 46° - - -
5/23 6:20pm 302 4 G 8 76° 19% - - 31° 83.8° 46° - - -
5/23 6:10pm 303 3 G 8 77° 21% - - 34° 83.8° 46° - - -
5/23 6:00pm 271 2 G 8 77° 19% - - 32° 83.8° 46° - - -
5/23 5:50pm 285 3 G 7 77° 22% - - 35° 83.8° 46° - - -
5/23 5:40pm 283 3 G 8 77° 27% - - 40° 83.8° 46° - - -
5/23 5:30pm 281 4 G 7 76° 27% - - 40° 83.8° 46° - - -
5/23 5:20pm 317 6 G 10 76° 29% - - 41° 83.8° 46° - - -
5/23 5:10pm 311 3 G 12 76° 30% - - 42° 83.8° 46° - - -
5/23 5:00pm 265 6 G 13 76° 29% - - 41° 83.8° 46° - - -
5/23 4:50pm 268 5 G 11 77° 25% - - 38° 83.8° 46° - - -
5/23 4:40pm 269 6 G 12 75° 26% - - 39° 83.8° 46° - - -
5/23 4:30pm 272 6 G 12 76° 23% - - 35° 83.8° 46° - - -
5/23 4:20pm 286 7 G 14 76° 27% - - 40° 83.8° 46° - - -
5/23 4:10pm 274 5 G 14 77° 26% - - 39° 83.8° 46° - - -
5/23 4:00pm 298 7 G 13 77° 28% - - 42° 83.8° 46° - - -
5/23 3:50pm 261 6 G 14 78° 26% - - 41° 83.8° 46° - - -
5/23 3:40pm 235 5 G 11 80° 22% - - 37° 83.8° 46° - - -
5/23 3:30pm 220 6 G 13 80° 20% - - 35° 83.8° 46° - - -
5/23 3:20pm 205 7 G 14 79° 20% - - 35° 83.8° 46° - - -
5/23 3:10pm 223 8 G 13 80° 20% - - 35° 83.8° 46° - - -
5/23 3:00pm 217 7 G 13 80° 18% - - 33° 83.8° 46° - - -
5/23 2:50pm 284 5 G 12 80° 18% - - 32° 83.8° 46° - - -
5/23 2:40pm 287 6 G 13 80° 18% - - 33° 83.8° 46° - - -
5/23 2:30pm 230 6 G 12 80° 20% - - 36° 83.8° 46° - - -
5/23 2:20pm 229 5 G 13 81° 21% - - 37° 83.8° 46° - - -
5/23 2:10pm 261 5 G 10 81° 22% - - 38° 83.8° 46° - - -
5/23 2:00pm 250 4 G 13 81° 22% - - 38° 83.8° 46° - - -
5/23 1:50pm 194 8 G 18 81° 23% - - 40° 83.8° 46° - - -
5/23 1:40pm 269 6 G 15 82° 21% - - 38° 83.8° 46° - - -
5/23 1:30pm 247 4 G 10 82° 18% - - 34° 83.8° 46° - - -
5/23 1:20pm 246 3 G 9 82° 15% - - 30° 83.8° 46° - - -
5/23 1:10pm 227 2 G 7 83° 12% - - 24° 83.8° 46° - - -
5/23 1:00pm 190 4 G 10 82° 12% - - 24° 82.9° 46° - - -
5/23 12:50pm 170 5 G 14 82° 12% - - 24° 82.9° 46° - - -
5/23 12:40pm 196 4 G 11 82° 13% - - 26° 82.9° 46° - - -
5/23 12:30pm 164 6 G 18 82° 13% - - 25° 82.9° 46° - - -
5/23 12:20pm 168 4 G 10 82° 12% - - 25° 82.9° 46° - - -
5/23 12:10pm 181 7 G 11 82° 12% - - 25° 82.5° 46° - - -
5/23 12:00pm 153 3 G 10 82° 12% - - 25° 82.5° 46° - - -
5/23 11:50am 33 3 G 10 81° 12% - - 23° 81.9° 46° - - -
5/23 11:40am 146 5 G 11 81° 12% - - 23° 81.9° 46° - - -
5/23 11:30am 168 3 G 11 81° 13% - - 25° 81.9° 46° - - -
5/23 11:20am 178 6 G 14 81° 13% - - 25° 81.8° 46° - - -
5/23 11:10am 162 6 G 14 80° 12% - - 24° 80.8° 46° - - -
5/23 11:00am 137 10 G 21 80° 12% - - 22° 80.8° 46° - - -
5/23 10:50am 86 4 G 13 80° 12% - - 24° 80.8° 46° - - -
5/23 10:40am 99 5 G 11 80° 12% - - 23° 80.5° 46° - - -
5/23 10:30am 94 5 G 12 80° 12% - - 23° 80.5° 46° - - -
5/23 10:20am 128 5 G 11 80° 13% - - 24° 80.5° 46° - - -
5/23 10:10am 129 4 G 12 79° 13% - - 24° 80° 46° - - -
5/23 10:00am 130 8 G 13 79° 12% - - 23° 79.9° 46° - - -
5/23 9:50am 150 5 G 11 80° 13% - - 24° 79.9° 46° - - -
5/23 9:40am 159 7 G 14 79° 13% - - 24° 79.9° 46° - - -
5/23 9:30am 145 6 G 11 79° 13% - - 23° 79.9° 46° - - -
5/23 9:20am 146 5 G 11 79° 13% - - 24° 79.9° 46° - - -
5/23 9:10am 130 4 G 10 79° 14% - - 26° 79.9° 46° - - -
5/23 9:00am 153 4 G 10 79° 15% - - 27° 79.3° 46° - - -
5/23 8:50am 159 5 G 9 78° 14% - - 26° 78.5° 46° - - -
5/23 8:40am 153 4 G 6 78° 15% - - 26° 78.5° 46° - - -
5/23 8:30am 28 1 G 5 77° 31% - - 43° 78.3° 46° - - -
5/23 8:20am 337 0 G 1 78° 34% - - 47° 78.3° 46° - - -
5/23 8:10am 35 0 G 1 76° 32% - - 44° 77.2° 46° - - -
5/23 8:00am 11 1 G 2 72° 38% - - 45° 74.7° 46° - - -
5/23 7:50am 5 2 G 2 69° 42% - - 45° 70.9° 46° - - -
5/23 7:40am 17 1 G 1 68° 40% - - 43° 68.7° 46° - - -
5/23 7:30am 348 0 G 1 65° 43% - - 42° 67.8° 46° - - -
5/23 7:20am 16 1 G 2 62° 45% - - 40° 63.1° 46° - - -
5/23 7:10am 39 1 G 2 60° 46% - - 39° 61.2° 46° - - -
5/23 7:00am 41 1 G 2 56° 49% - - 37° 57.8° 46° - - -
5/23 6:50am 45 1 G 2 54° 53% - - 37° 54.2° 46° - - -
5/23 6:40am 53 1 G 2 50° 60% - - 37° 52° 46° - - -
5/23 6:30am 56 2 G 3 49° 59% - - 35° 50.5° 46° - - -
5/23 6:20am 77 1 G 2 47° 63% - - 35° 50.4° 46° - - -
5/23 6:10am 66 1 G 3 48° 60% - - 34° 50.4° 46° - - -
5/23 6:00am 47 2 G 3 47° 62% - - 34° 50.4° 46° - - -